createdAt,value
2018-06-16T00:01:03.552Z,32.58
2018-06-16T00:03:36.680Z,32.05
2018-06-16T00:06:08.838Z,31.35
2018-06-16T00:08:40.346Z,35.00
2018-06-16T00:11:11.788Z,30.75
2018-06-16T00:13:45.207Z,30.90
2018-06-16T00:16:19.647Z,30.27
2018-06-16T00:18:50.225Z,30.23
2018-06-16T00:21:21.653Z,34.33
2018-06-16T00:23:56.158Z,28.33
2018-06-16T00:26:26.741Z,34.15
2018-06-16T00:28:58.330Z,32.50
2018-06-16T00:31:29.918Z,31.75
2018-06-16T00:34:01.381Z,37.08
2018-06-16T00:36:32.950Z,27.27
2018-06-16T00:39:03.580Z,31.98
2018-06-16T00:41:33.675Z,32.25
2018-06-16T00:44:05.325Z,26.23
2018-06-16T00:46:39.167Z,35.33
2018-06-16T00:49:09.642Z,31.08
2018-06-16T00:51:41.430Z,28.73
2018-06-16T00:54:13.315Z,26.48
2018-06-16T00:56:44.769Z,31.25
2018-06-16T00:59:16.753Z,26.65
2018-06-16T01:01:48.668Z,29.27
2018-06-16T01:04:21.852Z,32.40
2018-06-16T01:06:55.171Z,31.00
2018-06-16T01:09:26.953Z,29.42
2018-06-16T01:11:58.553Z,28.95
2018-06-16T01:14:30.053Z,25.37
2018-06-16T01:17:02.289Z,26.33
2018-06-16T01:19:35.395Z,24.70
2018-06-16T01:22:06.954Z,28.77
2018-06-16T01:24:40.664Z,24.30
2018-06-16T01:27:12.331Z,28.15
2018-06-16T01:29:47.196Z,26.33
2018-06-16T01:32:19.887Z,29.27
2018-06-16T01:34:53.133Z,26.33
2018-06-16T01:37:24.807Z,23.20
2018-06-16T01:39:57.976Z,27.10
2018-06-16T01:42:27.956Z,25.85
2018-06-16T01:44:58.282Z,25.20
2018-06-16T01:47:31.566Z,22.02
2018-06-16T01:50:06.127Z,23.62
2018-06-16T01:52:40.756Z,27.52
2018-06-16T01:55:12.216Z,28.58
2018-06-16T01:57:45.754Z,22.30
2018-06-16T02:00:20.423Z,24.30
2018-06-16T02:02:52.064Z,29.80
2018-06-16T02:05:23.788Z,24.17
2018-06-16T02:07:53.865Z,26.80
2018-06-16T02:10:26.955Z,26.17
2018-06-16T02:13:00.162Z,28.27
2018-06-16T02:15:31.629Z,27.58
2018-06-16T02:18:03.208Z,24.10
2018-06-16T02:20:34.788Z,24.87
2018-06-16T02:23:06.326Z,30.48
2018-06-16T02:25:36.471Z,26.65
2018-06-16T02:28:07.940Z,23.62
2018-06-16T02:30:38.847Z,23.90
2018-06-16T02:33:08.850Z,23.08
2018-06-16T02:35:40.343Z,25.35
2018-06-16T02:38:10.235Z,23.80
2018-06-16T02:40:44.655Z,25.37
2018-06-16T02:43:15.279Z,28.77
2018-06-16T02:45:45.307Z,26.58
2018-06-16T02:48:18.508Z,24.27
2018-06-16T02:50:50.042Z,25.25
2018-06-16T02:53:20.735Z,28.60
2018-06-16T02:55:53.967Z,28.98
2018-06-16T02:58:25.610Z,28.52
2018-06-16T03:00:58.844Z,23.95
2018-06-16T03:03:29.226Z,25.90
2018-06-16T03:06:03.722Z,28.27
2018-06-16T03:08:33.888Z,32.25
2018-06-16T03:11:03.882Z,27.30
2018-06-16T03:13:35.469Z,26.58
2018-06-16T03:16:09.480Z,27.65
2018-06-16T03:18:41.014Z,27.67
2018-06-16T03:21:11.130Z,24.33
2018-06-16T03:23:42.585Z,26.48
2018-06-16T03:26:15.582Z,24.35
2018-06-16T03:28:48.772Z,23.95
2018-06-16T03:31:21.725Z,27.55
2018-06-16T03:33:53.189Z,23.58
2018-06-16T03:36:26.691Z,23.12
2018-06-16T03:38:57.137Z,28.70
2018-06-16T03:41:30.550Z,25.08
2018-06-16T03:44:00.523Z,25.40
2018-06-16T03:46:33.850Z,26.48
2018-06-16T03:49:03.772Z,28.85
2018-06-16T03:51:36.752Z,27.42
2018-06-16T03:54:10.232Z,24.25
2018-06-16T03:56:41.904Z,27.10
2018-06-16T03:59:13.529Z,20.83
2018-06-16T04:01:48.650Z,24.92
2018-06-16T04:04:23.194Z,25.92
2018-06-16T04:06:57.606Z,29.67
2018-06-16T04:09:28.842Z,25.75
2018-06-16T04:12:01.851Z,30.23
2018-06-16T04:14:34.417Z,33.05
2018-06-16T04:17:35.290Z,33.00
2018-06-16T04:20:07.167Z,43.15
2018-06-16T04:22:40.230Z,32.10
2018-06-16T04:25:11.853Z,34.67
2018-06-16T04:27:41.819Z,34.40
2018-06-16T04:30:14.936Z,37.53
2018-06-16T04:32:47.823Z,36.85
2018-06-16T04:35:22.298Z,35.90
2018-06-16T04:37:55.464Z,35.20
2018-06-16T04:40:26.525Z,40.63
2018-06-16T04:42:56.818Z,44.50
2018-06-16T04:45:28.408Z,38.00
2018-06-16T04:47:59.962Z,44.53
2018-06-16T04:50:34.729Z,46.22
2018-06-16T04:53:06.460Z,47.35
2018-06-16T04:55:39.536Z,42.83
2018-06-16T04:58:11.099Z,46.88
2018-06-16T05:00:45.503Z,42.53
2018-06-16T05:03:15.517Z,46.45
2018-06-16T05:05:49.316Z,41.78
2018-06-16T05:08:22.925Z,42.62
2018-06-16T05:10:54.655Z,46.83
2018-06-16T05:13:28.065Z,45.95
2018-06-16T05:16:01.186Z,44.15
2018-06-16T05:18:31.269Z,48.65
2018-06-16T05:21:04.420Z,47.45
2018-06-16T05:23:37.570Z,44.25
2018-06-16T05:26:08.609Z,38.17
2018-06-16T05:28:40.112Z,44.95
2018-06-16T05:31:11.604Z,46.22
2018-06-16T05:33:44.607Z,42.13
2018-06-16T05:36:18.408Z,45.45
2018-06-16T05:38:51.530Z,44.83
2018-06-16T05:41:21.521Z,51.17
2018-06-16T05:43:54.651Z,40.20
2018-06-16T05:46:27.443Z,42.45
2018-06-16T05:48:59.126Z,36.38
2018-06-16T05:51:30.544Z,45.50
2018-06-16T05:54:05.066Z,37.58
2018-06-16T05:56:36.567Z,38.95
2018-06-16T05:59:09.923Z,36.25
2018-06-16T06:01:41.372Z,35.17
2018-06-16T06:04:12.731Z,30.23
2018-06-16T06:06:44.667Z,40.38
2018-06-16T06:09:16.144Z,28.95
2018-06-16T06:11:47.532Z,30.60
2018-06-16T06:14:19.249Z,29.05
2018-06-16T06:16:50.403Z,30.20
2018-06-16T06:19:23.296Z,30.85
2018-06-16T06:21:54.696Z,27.05
2018-06-16T06:24:26.684Z,27.13
2018-06-16T06:26:58.180Z,30.15
2018-06-16T06:29:30.626Z,26.58
2018-06-16T06:32:03.639Z,25.17
2018-06-16T06:34:36.019Z,20.33
2018-06-16T06:37:06.118Z,23.20
2018-06-16T06:39:35.952Z,28.17
2018-06-16T06:42:07.476Z,22.17
2018-06-16T06:44:40.595Z,20.62
2018-06-16T06:47:14.798Z,24.12
2018-06-16T06:49:46.809Z,23.30
2018-06-16T06:52:27.767Z,29.63
2018-06-16T06:55:00.430Z,26.40
2018-06-16T06:57:33.448Z,24.23
2018-06-16T07:00:06.561Z,22.73
2018-06-16T07:02:41.100Z,23.27
2018-06-16T07:05:14.178Z,25.45
2018-06-16T07:07:47.064Z,20.50
2018-06-16T07:10:20.709Z,20.00
2018-06-16T07:12:50.671Z,27.83
2018-06-16T07:15:23.475Z,17.65
2018-06-16T07:17:53.591Z,24.95
2018-06-16T07:20:25.129Z,19.85
2018-06-16T07:22:56.601Z,20.40
2018-06-16T07:25:29.869Z,21.95
2018-06-16T07:28:00.484Z,18.08
2018-06-16T07:30:31.951Z,22.65
2018-06-16T07:33:03.467Z,13.48
2018-06-16T07:35:35.080Z,18.85
2018-06-16T07:38:09.432Z,19.30
2018-06-16T07:40:43.667Z,21.75
2018-06-16T07:43:16.607Z,22.87
2018-06-16T07:45:46.537Z,19.98
2018-06-16T07:48:21.563Z,19.92
2018-06-16T07:50:54.488Z,17.87
2018-06-16T07:53:27.489Z,20.37
2018-06-16T07:55:59.062Z,17.70
2018-06-16T07:58:30.485Z,15.88
2018-06-16T08:01:04.365Z,19.05
2018-06-16T08:03:35.221Z,19.90
2018-06-16T08:06:06.148Z,18.02
2018-06-16T08:08:41.015Z,19.73
2018-06-16T08:11:13.341Z,22.67
2018-06-16T08:13:43.406Z,18.48
2018-06-16T08:16:17.644Z,18.77
2018-06-16T08:18:51.019Z,16.55
2018-06-16T08:21:23.111Z,17.85
2018-06-16T08:23:54.717Z,21.42
2018-06-16T08:26:24.579Z,19.50
2018-06-16T08:28:57.832Z,27.98
2018-06-16T08:31:29.247Z,16.95
2018-06-16T08:34:00.739Z,18.48
2018-06-16T08:36:33.138Z,20.88
2018-06-16T08:39:06.425Z,16.33
2018-06-16T08:41:38.073Z,16.58
2018-06-16T08:44:12.647Z,18.60
2018-06-16T08:46:44.456Z,17.33
2018-06-16T08:49:15.824Z,19.98
2018-06-16T08:51:45.040Z,13.93
2018-06-16T08:54:19.396Z,15.82
2018-06-16T08:56:50.779Z,18.40
2018-06-16T08:59:24.109Z,18.02
2018-06-16T09:01:58.518Z,15.45
2018-06-16T09:04:31.595Z,17.83
2018-06-16T09:07:04.637Z,23.17
2018-06-16T09:09:38.890Z,16.58
2018-06-16T09:12:10.322Z,15.35
2018-06-16T09:14:43.860Z,20.20
2018-06-16T09:17:15.319Z,14.38
2018-06-16T09:19:46.843Z,10.80
2018-06-16T09:22:19.286Z,13.60
2018-06-16T09:24:52.281Z,12.00
2018-06-16T09:27:27.079Z,11.35
2018-06-16T09:29:57.011Z,11.27
2018-06-16T09:32:28.589Z,16.23
2018-06-16T09:35:03.207Z,11.50
2018-06-16T09:37:34.180Z,15.13
2018-06-16T09:40:05.651Z,11.60
2018-06-16T09:42:37.091Z,9.98
2018-06-16T09:45:08.526Z,11.40
2018-06-16T09:47:39.182Z,12.27
2018-06-16T09:50:10.408Z,11.43
2018-06-16T09:52:40.315Z,14.40
2018-06-16T09:55:10.224Z,11.60
2018-06-16T09:57:43.487Z,13.23
2018-06-16T10:00:32.279Z,9.90
2018-06-16T10:03:05.230Z,15.98
2018-06-16T10:05:36.620Z,10.40
2018-06-16T10:08:08.068Z,12.05
2018-06-16T10:10:40.859Z,11.27
2018-06-16T10:13:11.349Z,11.82
2018-06-16T10:15:44.153Z,8.63
2018-06-16T10:18:15.650Z,11.27
2018-06-16T10:20:48.553Z,11.52
2018-06-16T10:23:21.820Z,8.75
2018-06-16T10:25:54.838Z,6.40
2018-06-16T10:28:25.853Z,13.02
2018-06-16T10:30:58.565Z,8.13
2018-06-16T10:33:31.769Z,5.00
2018-06-16T10:36:03.389Z,10.10
2018-06-16T10:38:33.660Z,7.07
2018-06-16T10:41:08.067Z,4.85
2018-06-16T10:43:39.518Z,5.00
2018-06-16T10:46:09.418Z,5.65
2018-06-16T10:48:39.358Z,4.50
2018-06-16T10:51:10.921Z,3.17
2018-06-16T10:53:43.848Z,3.05
2018-06-16T10:56:15.219Z,3.17
2018-06-16T10:58:47.221Z,2.75
2018-06-16T11:01:18.552Z,3.90
2018-06-16T11:03:49.896Z,3.80
2018-06-16T11:06:19.805Z,6.30
2018-06-16T11:08:49.753Z,3.15
2018-06-16T11:11:19.739Z,2.67
2018-06-16T11:13:52.638Z,2.00
2018-06-16T11:16:25.416Z,2.40
2018-06-16T11:18:58.339Z,2.87
2018-06-16T11:21:29.807Z,3.28
2018-06-16T11:24:01.408Z,3.87
2018-06-16T11:26:31.550Z,2.67
2018-06-16T11:29:09.487Z,2.83
2018-06-16T11:31:42.699Z,2.90
2018-06-16T11:34:12.619Z,3.15
2018-06-16T11:36:44.062Z,3.87
2018-06-16T11:39:15.850Z,4.20
2018-06-16T11:41:47.277Z,4.10
2018-06-16T11:44:21.821Z,1.92
2018-06-16T11:46:54.768Z,3.45
2018-06-16T11:49:26.712Z,3.92
2018-06-16T11:52:00.096Z,4.82
2018-06-16T11:54:31.490Z,3.37
2018-06-16T11:57:03.146Z,3.90
2018-06-16T11:59:33.083Z,5.32
2018-06-16T12:02:05.834Z,5.78
2018-06-16T12:04:37.360Z,5.12
2018-06-16T12:07:12.736Z,5.10
2018-06-16T12:09:44.099Z,2.40
2018-06-16T12:12:15.578Z,6.03
2018-06-16T12:14:47.213Z,5.22
2018-06-16T12:17:20.213Z,5.70
2018-06-16T12:19:51.600Z,3.70
2018-06-16T12:22:23.183Z,5.62
2018-06-16T12:24:53.218Z,6.72
2018-06-16T12:27:28.645Z,6.32
2018-06-16T12:29:58.477Z,5.65
2018-06-16T12:32:29.825Z,8.05
2018-06-16T12:35:04.641Z,5.82
2018-06-16T12:37:36.244Z,4.90
2018-06-16T12:40:07.636Z,4.43
2018-06-16T12:42:37.664Z,4.22
2018-06-16T12:45:07.589Z,6.00
2018-06-16T12:47:39.044Z,3.50
2018-06-16T12:50:12.938Z,7.75
2018-06-16T12:52:45.012Z,6.32
2018-06-16T12:55:17.098Z,9.85
2018-06-16T12:57:50.205Z,4.18
2018-06-16T13:00:21.537Z,8.30
2018-06-16T13:02:54.391Z,6.80
2018-06-16T13:05:27.489Z,7.30
2018-06-16T13:07:57.379Z,5.72
2018-06-16T13:10:28.811Z,4.82
2018-06-16T13:13:01.654Z,7.65
2018-06-16T13:15:34.454Z,4.60
2018-06-16T13:18:07.363Z,4.32
2018-06-16T13:20:40.317Z,6.62
2018-06-16T13:23:11.658Z,4.15
2018-06-16T13:25:43.065Z,5.53
2018-06-16T13:28:14.589Z,6.57
2018-06-16T13:30:47.606Z,7.12
2018-06-16T13:33:16.970Z,7.62
2018-06-16T13:35:52.958Z,8.32
2018-06-16T13:38:24.352Z,7.45
2018-06-16T13:40:55.807Z,8.48
2018-06-16T13:43:28.589Z,6.45
2018-06-16T13:46:01.442Z,6.55
2018-06-16T13:48:34.226Z,6.55
2018-06-16T13:51:05.979Z,7.60
2018-06-16T13:53:37.382Z,8.25
2018-06-16T13:56:09.679Z,10.27
2018-06-16T13:58:42.546Z,7.05
2018-06-16T14:01:14.047Z,10.02
2018-06-16T14:03:45.632Z,8.27
2018-06-16T14:06:17.249Z,12.60
2018-06-16T14:08:50.118Z,9.65
2018-06-16T14:11:19.945Z,13.85
2018-06-16T14:13:52.825Z,15.98
2018-06-16T14:16:22.751Z,15.23
2018-06-16T14:18:54.353Z,19.87
2018-06-16T14:21:25.721Z,17.50
2018-06-16T14:23:59.088Z,16.65
2018-06-16T14:26:30.427Z,17.45
2018-06-16T14:29:00.446Z,19.12
2018-06-16T14:31:31.763Z,18.05
2018-06-16T14:34:04.682Z,23.25
2018-06-16T14:36:37.568Z,21.92
2018-06-16T14:39:13.662Z,17.12
2018-06-16T14:41:46.598Z,21.90
2018-06-16T14:44:18.930Z,18.15
2018-06-16T14:46:48.760Z,17.92
2018-06-16T14:49:20.210Z,15.93
2018-06-16T14:51:51.846Z,22.90
2018-06-16T14:54:25.619Z,17.23
2018-06-16T14:56:57.305Z,17.00
2018-06-16T14:59:31.599Z,16.37
2018-06-16T15:02:01.540Z,18.87
2018-06-16T15:04:34.148Z,21.83
2018-06-16T15:07:05.523Z,19.58
2018-06-16T15:09:37.028Z,21.67
2018-06-16T15:12:10.030Z,20.80
2018-06-16T15:14:40.707Z,23.40
2018-06-16T15:17:12.168Z,18.05
2018-06-16T15:19:45.574Z,18.73
2018-06-16T15:22:16.916Z,16.98
2018-06-16T15:24:47.325Z,18.95
2018-06-16T15:27:19.014Z,19.02
2018-06-16T15:29:50.377Z,13.50
2018-06-16T15:32:23.202Z,17.17
2018-06-16T15:34:55.106Z,20.20
2018-06-16T15:37:26.475Z,17.25
2018-06-16T15:40:00.824Z,16.80
2018-06-16T15:42:32.294Z,16.50
2018-06-16T15:45:03.785Z,17.15
2018-06-16T15:47:36.740Z,14.77
2018-06-16T15:50:10.614Z,15.07
2018-06-16T15:52:47.311Z,16.90
2018-06-16T15:55:17.154Z,14.00
2018-06-16T15:57:48.624Z,15.13
2018-06-16T16:00:20.196Z,17.52
2018-06-16T16:02:53.156Z,14.60
2018-06-16T16:05:24.623Z,12.60
2018-06-16T16:07:55.122Z,16.37
2018-06-16T16:10:28.050Z,13.15
2018-06-16T16:13:00.171Z,16.85
2018-06-16T16:15:31.501Z,15.00
2018-06-16T16:18:02.989Z,15.82
2018-06-16T16:20:32.989Z,13.50
2018-06-16T16:23:04.423Z,13.07
2018-06-16T16:25:36.024Z,14.82
2018-06-16T16:28:08.466Z,15.68
2018-06-16T16:30:40.531Z,13.68
2018-06-16T16:33:13.893Z,16.62
2018-06-16T16:35:45.452Z,13.45
2018-06-16T16:38:17.865Z,14.43
2018-06-16T16:40:48.707Z,12.82
2018-06-16T16:43:17.720Z,11.50
2018-06-16T16:45:49.157Z,17.35
2018-06-16T16:48:21.011Z,16.42
2018-06-16T16:50:50.923Z,11.27
2018-06-16T16:53:22.337Z,11.60
2018-06-16T16:55:55.154Z,14.30
2018-06-16T16:58:26.618Z,13.73
2018-06-16T17:00:58.176Z,14.52
2018-06-16T17:03:29.801Z,16.23
2018-06-16T17:06:01.364Z,12.82
2018-06-16T17:08:31.296Z,13.98
2018-06-16T17:11:04.134Z,9.88
2018-06-16T17:13:36.061Z,12.40
2018-06-16T17:16:07.411Z,14.23
2018-06-16T17:18:40.746Z,12.20
2018-06-16T17:21:13.716Z,12.02
2018-06-16T17:23:45.344Z,7.68
2018-06-16T17:26:15.342Z,12.68
2018-06-16T17:28:45.264Z,8.05
2018-06-16T17:31:17.230Z,11.52
2018-06-16T17:33:48.029Z,14.13
2018-06-16T17:36:20.950Z,11.50
2018-06-16T17:38:53.202Z,10.63
2018-06-16T17:41:23.115Z,10.07
2018-06-16T17:43:56.395Z,7.32
2018-06-16T17:46:28.463Z,6.57
2018-06-16T17:49:01.348Z,8.82
2018-06-16T17:51:31.291Z,12.73
2018-06-16T17:54:02.858Z,9.45
2018-06-16T17:56:35.722Z,4.35
2018-06-16T17:59:10.116Z,8.30
2018-06-16T18:01:43.490Z,7.47
2018-06-16T18:04:17.485Z,6.97
2018-06-16T18:06:50.443Z,9.13
2018-06-16T18:09:23.659Z,5.93
2018-06-16T18:11:53.329Z,7.35
2018-06-16T18:14:23.216Z,9.27
2018-06-16T18:16:55.408Z,7.95
2018-06-16T18:19:28.371Z,7.05
2018-06-16T18:21:58.382Z,5.57
2018-06-16T18:24:31.612Z,3.30
2018-06-16T18:27:01.513Z,7.40
2018-06-16T18:29:31.711Z,7.53
2018-06-16T18:32:03.101Z,7.12
2018-06-16T18:34:34.516Z,6.75
2018-06-16T18:37:05.996Z,5.00
2018-06-16T18:39:38.354Z,5.03
2018-06-16T18:42:11.767Z,9.90
2018-06-16T18:44:46.241Z,6.53
2018-06-16T18:47:19.257Z,6.57
2018-06-16T18:49:50.099Z,5.50
2018-06-16T18:52:21.843Z,4.30
2018-06-16T18:54:53.518Z,8.63
2018-06-16T18:57:26.543Z,6.75
2018-06-16T19:00:00.975Z,7.85
2018-06-16T19:02:32.421Z,9.27
2018-06-16T19:05:05.600Z,9.35
2018-06-16T19:07:37.188Z,8.15
2018-06-16T19:10:10.142Z,4.47
2018-06-16T19:12:41.634Z,6.75
2018-06-16T19:15:13.600Z,5.78
2018-06-16T19:17:46.520Z,6.40
2018-06-16T19:20:16.492Z,11.75
2018-06-16T19:22:48.173Z,5.80
2018-06-16T19:25:20.296Z,11.10
2018-06-16T19:27:51.869Z,7.32
2018-06-16T19:30:25.287Z,6.95
2018-06-16T19:32:58.478Z,5.72
2018-06-16T19:35:30.050Z,6.10
2018-06-16T19:38:03.018Z,9.02
2018-06-16T19:40:32.937Z,6.68
2018-06-16T19:43:04.875Z,6.07
2018-06-16T19:45:36.320Z,14.77
2018-06-16T19:48:09.226Z,10.50
2018-06-16T19:50:39.243Z,9.10
2018-06-16T19:53:12.215Z,8.85
2018-06-16T19:55:46.113Z,10.23
2018-06-16T19:58:19.160Z,8.48
2018-06-16T20:00:52.215Z,5.15
2018-06-16T20:03:23.758Z,9.35
2018-06-16T20:05:58.664Z,9.93
2018-06-16T20:08:31.778Z,7.57
2018-06-16T20:11:03.848Z,6.82
2018-06-16T20:13:35.493Z,9.32
2018-06-16T20:16:08.547Z,6.35
2018-06-16T20:18:39.954Z,7.55
2018-06-16T20:21:13.177Z,9.23
2018-06-16T20:23:43.675Z,3.80
2018-06-16T20:26:18.469Z,10.75
2018-06-16T20:28:50.246Z,8.13
2018-06-16T20:31:25.666Z,4.50
2018-06-16T20:33:58.680Z,8.23
2018-06-16T20:36:31.976Z,7.05
2018-06-16T20:39:01.987Z,6.30
2018-06-16T20:41:32.117Z,9.85
2018-06-16T20:44:05.697Z,7.95
2018-06-16T20:46:40.312Z,10.40
2018-06-16T20:49:10.254Z,12.93
2018-06-16T20:51:43.206Z,15.98
2018-06-16T20:54:14.766Z,16.55
2018-06-16T20:56:46.284Z,14.93
2018-06-16T20:59:18.024Z,11.93
2018-06-16T21:01:53.730Z,13.93
2018-06-16T21:04:25.224Z,16.10
2018-06-16T21:06:58.289Z,14.55
2018-06-16T21:09:30.235Z,10.30
2018-06-16T21:12:03.316Z,13.00
2018-06-16T21:14:36.316Z,13.77
2018-06-16T21:17:09.218Z,14.73
2018-06-16T21:19:41.153Z,16.12
2018-06-16T21:22:13.251Z,14.30
2018-06-16T21:24:44.783Z,13.73
2018-06-16T21:27:19.332Z,14.25
2018-06-16T21:29:50.991Z,18.85
2018-06-16T21:32:24.263Z,14.98
2018-06-16T21:34:57.412Z,7.35
2018-06-16T21:37:30.267Z,11.93
2018-06-16T21:40:01.723Z,8.48
2018-06-16T21:42:33.330Z,9.15
2018-06-16T21:45:05.031Z,9.77
2018-06-16T21:47:38.078Z,7.85
2018-06-16T21:50:08.113Z,11.00
2018-06-16T21:52:39.758Z,8.73
2018-06-16T21:55:14.589Z,13.23
2018-06-16T21:57:44.754Z,7.00
2018-06-16T22:00:19.135Z,9.10
2018-06-16T22:02:51.292Z,8.23
2018-06-16T22:05:22.902Z,10.13
2018-06-16T22:07:56.209Z,9.25
2018-06-16T22:10:27.832Z,10.77
2018-06-16T22:13:00.746Z,9.75
2018-06-16T22:15:35.291Z,13.62
2018-06-16T22:18:09.228Z,9.27
2018-06-16T22:20:40.692Z,7.80
2018-06-16T22:23:13.680Z,9.45
2018-06-16T22:25:46.641Z,9.90
2018-06-16T22:28:19.755Z,9.98
2018-06-16T22:30:54.090Z,11.85
2018-06-16T22:33:27.268Z,9.85
2018-06-16T22:35:59.328Z,10.50
2018-06-16T22:38:31.611Z,11.57
2018-06-16T22:41:03.148Z,9.60
2018-06-16T22:43:36.272Z,7.87
2018-06-16T22:46:07.780Z,6.65
2018-06-16T22:48:42.478Z,11.57
2018-06-16T22:51:15.800Z,11.20
2018-06-16T22:53:48.894Z,12.40
2018-06-16T22:56:20.373Z,10.93
2018-06-16T22:58:50.371Z,11.70
2018-06-16T23:01:23.619Z,8.35
2018-06-16T23:03:58.120Z,13.90
2018-06-16T23:23:17.440Z,6.25
2018-06-16T23:25:50.844Z,4.53
2018-06-16T23:28:22.911Z,7.40
2018-06-16T23:30:57.899Z,7.07
2018-06-16T23:33:31.643Z,7.68
2018-06-16T23:36:29.558Z,4.28
2018-06-16T23:39:01.564Z,6.20
2018-06-16T23:41:36.115Z,3.65
2018-06-16T23:44:07.864Z,4.35
2018-06-16T23:46:39.769Z,5.25
2018-06-16T23:49:12.133Z,7.82
2018-06-16T23:51:46.938Z,6.72
2018-06-16T23:54:20.379Z,3.92
2018-06-16T23:56:54.868Z,7.57
2018-06-16T23:59:29.867Z,4.70
